Time;durP1;ratioP1;P1;durP2;ratioP2;P2;SDS_P1;SDS_P2;PMS_P1;PMS_P2;Temp;Humidity;BMP_temperature;BMP_pressure;BME280_temperature;BME280_humidity;BME280_pressure;Samples;Min_cycle;Max_cycle;Signal;HPM_P1;HPM_P2
2022/06/17 00:00:10;;;;;;;5.43;3.30;;;15.00;99.90;;;;;;5014855;28;20284;-62
2022/06/17 00:02:38;;;;;;;3.80;3.37;;;15.00;99.90;;;;;;5015803;28;20689;-62
2022/06/17 00:05:05;;;;;;;8.07;3.50;;;14.90;99.90;;;;;;5015598;28;20717;-62
2022/06/17 00:07:32;;;;;;;5.00;3.10;;;14.90;99.90;;;;;;5014054;28;20207;-62
2022/06/17 00:09:58;;;;;;;6.60;3.37;;;14.90;99.90;;;;;;5014200;28;20203;-62
2022/06/17 00:12:27;;;;;;;6.93;3.30;;;14.80;99.90;;;;;;5014580;28;20207;-62
2022/06/17 00:17:37;;;;;;;6.73;3.83;;;14.80;99.90;;;;;;5013909;28;20206;-63
2022/06/17 00:20:05;;;;;;;4.23;3.27;;;14.80;99.90;;;;;;5014033;28;20226;-62
2022/06/17 00:22:32;;;;;;;3.23;2.77;;;14.70;99.90;;;;;;5014041;28;20338;-62
2022/06/17 00:24:59;;;;;;;4.00;3.10;;;14.70;99.90;;;;;;5014428;28;20235;-62
2022/06/17 00:27:27;;;;;;;4.73;3.50;;;14.70;99.90;;;;;;5013643;28;20242;-62
2022/06/17 00:29:53;;;;;;;4.33;3.40;;;14.60;99.90;;;;;;5013906;28;20207;-62
2022/06/17 00:32:20;;;;;;;6.10;3.23;;;14.60;99.90;;;;;;5013796;28;20334;-62
2022/06/17 00:34:47;;;;;;;7.23;3.57;;;14.60;99.90;;;;;;5013627;28;20894;-62
2022/06/17 00:37:15;;;;;;;6.23;3.40;;;14.60;99.90;;;;;;5013062;28;20207;-62
2022/06/17 00:39:42;;;;;;;5.50;2.80;;;14.60;99.90;;;;;;5013561;28;20701;-62
2022/06/17 00:42:14;;;;;;;5.57;3.17;;;14.50;99.90;;;;;;5013695;28;20261;-62
2022/06/17 00:44:48;;;;;;;6.00;3.57;;;14.50;99.90;;;;;;5013601;28;20202;-62
2022/06/17 00:47:23;;;;;;;4.47;3.40;;;14.50;99.90;;;;;;5013300;28;20280;-62
2022/06/17 00:49:54;;;;;;;3.53;3.13;;;14.60;99.90;;;;;;5013178;28;20226;-62
2022/06/17 00:52:26;;;;;;;9.47;3.40;;;14.60;99.90;;;;;;5013511;28;20207;-62
2022/06/17 00:54:57;;;;;;;6.23;3.47;;;14.60;99.90;;;;;;5013325;28;20226;-62
2022/06/17 00:57:28;;;;;;;5.37;3.37;;;14.60;99.90;;;;;;5013045;28;20240;-63
2022/06/17 01:00:13;;;;;;;5.20;3.60;;;14.60;99.90;;;;;;5013354;28;20216;-62
2022/06/17 01:02:43;;;;;;;5.33;3.20;;;14.70;99.90;;;;;;5013609;28;20217;-62
2022/06/17 01:05:11;;;;;;;3.63;3.07;;;14.70;99.90;;;;;;5012289;28;20226;-62
2022/06/17 01:07:42;;;;;;;5.33;3.37;;;14.60;99.90;;;;;;5012755;28;20820;-62
2022/06/17 01:10:13;;;;;;;4.93;3.40;;;14.70;99.90;;;;;;5013031;28;20265;-62
2022/06/17 01:12:43;;;;;;;6.53;2.87;;;14.70;99.90;;;;;;5012743;28;20199;-62
2022/06/17 01:15:17;;;;;;;6.23;3.30;;;14.70;99.90;;;;;;5013027;28;20326;-62
2022/06/17 01:17:44;;;;;;;4.43;3.27;;;14.60;1.00;;;;;;5012612;28;20217;-62
2022/06/17 01:20:13;;;;;;;5.63;3.30;;;14.60;1.00;;;;;;5013077;28;20233;-62
2022/06/17 01:22:43;;;;;;;5.03;2.93;;;14.60;1.00;;;;;;5012796;28;20268;-62
2022/06/17 01:25:14;;;;;;;5.93;3.23;;;14.50;1.00;;;;;;5012721;28;20231;-62
2022/06/17 01:27:44;;;;;;;5.47;2.90;;;14.50;1.00;;;;;;5012846;28;20625;-62
2022/06/17 01:30:15;;;;;;;3.27;2.97;;;14.50;1.00;;;;;;5012821;28;20210;-62
2022/06/17 01:32:48;;;;;;;3.70;3.10;;;14.40;1.00;;;;;;5012909;28;20209;-62
2022/06/17 01:35:15;;;;;;;3.87;3.47;;;14.40;1.00;;;;;;5012561;28;20230;-62
2022/06/17 01:37:43;;;;;;;5.23;3.10;;;14.40;1.00;;;;;;5012144;28;20269;-62
2022/06/17 01:40:11;;;;;;;6.17;3.70;;;14.40;1.00;;;;;;5012555;28;20233;-62
2022/06/17 01:42:39;;;;;;;4.17;3.07;;;14.40;1.00;;;;;;5012690;28;20288;-62
2022/06/17 01:45:08;;;;;;;4.87;3.10;;;14.40;1.00;;;;;;5012342;28;20236;-62
2022/06/17 01:47:37;;;;;;;3.83;3.40;;;14.40;1.00;;;;;;5012216;28;20210;-62
2022/06/17 01:50:08;;;;;;;4.73;3.23;;;14.40;1.00;;;;;;5012359;28;20213;-62
2022/06/17 01:52:39;;;;;;;5.40;3.40;;;14.40;1.00;;;;;;5012516;28;20213;-62
2022/06/17 01:55:10;;;;;;;4.43;3.33;;;14.30;1.00;;;;;;5012506;28;20577;-62
2022/06/17 01:57:42;;;;;;;4.50;3.07;;;14.30;1.00;;;;;;5011904;28;20703;-62
2022/06/17 02:00:13;;;;;;;5.30;3.37;;;14.30;1.00;;;;;;5012515;28;20677;-62
2022/06/17 02:02:41;;;;;;;4.33;3.10;;;14.30;1.00;;;;;;5012496;28;20210;-62
2022/06/17 02:05:10;;;;;;;5.40;3.10;;;14.30;1.00;;;;;;5012506;28;20303;-62
2022/06/17 02:07:43;;;;;;;6.57;3.50;;;14.30;1.00;;;;;;5012089;28;20261;-62
2022/06/17 02:10:11;;;;;;;4.77;3.40;;;14.30;1.00;;;;;;5012359;28;20214;-62
2022/06/17 02:12:39;;;;;;;5.03;3.60;;;14.30;1.00;;;;;;5012036;28;20240;-62
2022/06/17 02:15:07;;;;;;;3.93;3.10;;;14.30;1.00;;;;;;5011827;28;20266;-62
2022/06/17 02:17:39;;;;;;;6.53;2.97;;;14.30;1.00;;;;;;5011814;28;20268;-61
2022/06/17 02:20:08;;;;;;;4.23;2.80;;;14.30;1.00;;;;;;5012126;28;20267;-62
2022/06/17 02:22:36;;;;;;;4.97;2.97;;;14.30;1.00;;;;;;5011988;28;20626;-62
2022/06/17 02:25:08;;;;;;;3.47;3.00;;;14.30;1.00;;;;;;5011895;28;20264;-62
2022/06/17 02:27:37;;;;;;;5.67;3.53;;;14.30;1.00;;;;;;5011613;28;20210;-62
2022/06/17 02:30:06;;;;;;;3.97;2.97;;;14.30;1.00;;;;;;5012120;28;20222;-62
2022/06/17 02:32:34;;;;;;;8.47;3.30;;;14.30;1.00;;;;;;5011932;28;20213;-62
2022/06/17 02:35:05;;;;;;;5.27;3.07;;;14.30;1.00;;;;;;5012045;28;20279;-62
2022/06/17 02:37:32;;;;;;;8.67;3.00;;;14.30;1.00;;;;;;5011576;28;20275;-62
2022/06/17 02:40:03;;;;;;;7.93;3.13;;;14.30;1.00;;;;;;5012073;28;20211;-62
2022/06/17 02:42:32;;;;;;;4.17;2.90;;;14.30;1.00;;;;;;5011763;28;20255;-62
2022/06/17 02:45:03;;;;;;;4.50;3.00;;;14.30;1.00;;;;;;5011772;28;20712;-62
2022/06/17 02:47:31;;;;;;;7.60;2.80;;;14.20;1.00;;;;;;5011656;28;20680;-62
2022/06/17 02:49:59;;;;;;;7.40;3.47;;;14.20;1.00;;;;;;5012011;28;20234;-62
2022/06/17 02:52:32;;;;;;;5.97;3.17;;;14.20;1.00;;;;;;5011702;28;20208;-62
2022/06/17 02:55:01;;;;;;;5.27;3.00;;;14.20;1.00;;;;;;5011741;28;20658;-62
2022/06/17 02:57:30;;;;;;;3.23;2.93;;;14.10;1.00;;;;;;5011272;28;20209;-62
2022/06/17 03:00:04;;;;;;;5.87;3.10;;;14.10;1.00;;;;;;5011730;28;20210;-62
2022/06/17 03:02:33;;;;;;;4.43;2.93;;;14.10;1.00;;;;;;5011684;28;20285;-62
2022/06/17 03:05:00;;;;;;;4.23;3.30;;;14.10;1.00;;;;;;5011575;28;20724;-62
2022/06/17 03:07:30;;;;;;;8.50;3.17;;;14.10;1.00;;;;;;5011182;28;20260;-63
2022/06/17 03:09:57;;;;;;;3.30;3.00;;;14.20;1.00;;;;;;5011763;28;20256;-62
2022/06/17 03:12:26;;;;;;;3.97;3.17;;;14.20;1.00;;;;;;5011614;28;20207;-62
2022/06/17 03:14:56;;;;;;;3.87;2.67;;;14.20;1.00;;;;;;5011461;28;20781;-62
2022/06/17 03:17:25;;;;;;;5.50;2.97;;;14.20;1.00;;;;;;5011145;28;20269;-62
2022/06/17 03:19:54;;;;;;;6.43;3.20;;;14.20;1.00;;;;;;5011414;28;20217;-62
2022/06/17 03:22:21;;;;;;;5.63;2.80;;;14.20;1.00;;;;;;5011460;28;20644;-62
2022/06/17 03:24:52;;;;;;;3.80;3.10;;;14.20;1.00;;;;;;5011554;28;20206;-61
2022/06/17 03:27:23;;;;;;;4.43;2.93;;;14.20;1.00;;;;;;5011167;28;20210;-62
2022/06/17 03:29:51;;;;;;;4.53;3.10;;;14.20;1.00;;;;;;5015096;28;20214;-62
2022/06/17 03:32:22;;;;;;;4.40;2.83;;;14.30;1.00;;;;;;5015333;28;20217;-62
2022/06/17 03:34:53;;;;;;;4.27;2.97;;;14.30;1.00;;;;;;5015582;28;20778;-62
2022/06/17 03:37:24;;;;;;;3.17;2.90;;;14.30;1.00;;;;;;5014666;28;20239;-62
2022/06/17 03:39:55;;;;;;;3.97;3.17;;;14.20;1.00;;;;;;5015137;28;20275;-62
2022/06/17 03:42:27;;;;;;;3.80;2.90;;;14.30;1.00;;;;;;5015055;28;20223;-62
2022/06/17 03:44:59;;;;;;;3.90;3.37;;;14.30;1.00;;;;;;5014371;28;20725;-62
2022/06/17 03:47:41;;;;;;;4.00;2.93;;;14.30;1.00;;;;;;5014653;28;20268;-62
2022/06/17 03:50:20;;;;;;;4.13;3.17;;;14.30;1.00;;;;;;5014575;28;20210;-62
2022/06/17 03:52:50;;;;;;;4.77;2.77;;;14.40;1.00;;;;;;5014734;28;20216;-62
2022/06/17 03:55:19;;;;;;;4.53;3.10;;;14.40;1.00;;;;;;5014460;28;20233;-62
2022/06/17 03:57:49;;;;;;;7.60;4.33;;;14.40;1.00;;;;;;5013981;28;20210;-62
2022/06/17 04:00:21;;;;;;;6.57;3.23;;;14.40;1.00;;;;;;5014731;28;20216;-62
2022/06/17 04:02:49;;;;;;;5.87;3.20;;;14.50;1.00;;;;;;5014405;28;20231;-62
2022/06/17 04:05:20;;;;;;;3.40;2.70;;;14.50;1.00;;;;;;5014279;28;20234;-62
2022/06/17 04:07:47;;;;;;;4.23;2.90;;;14.60;1.00;;;;;;5013556;28;20220;-62
2022/06/17 04:10:18;;;;;;;4.03;2.83;;;14.60;1.00;;;;;;5014252;28;20236;-62
2022/06/17 04:12:48;;;;;;;7.60;3.13;;;14.70;1.00;;;;;;5014180;28;20211;-62
2022/06/17 04:15:26;;;;;;;5.53;3.23;;;14.80;1.00;;;;;;5014236;28;20242;-62
2022/06/17 04:17:54;;;;;;;4.47;3.27;;;14.90;99.90;;;;;;5013840;28;20210;-62
2022/06/17 04:20:38;;;;;;;5.43;2.77;;;15.00;99.90;;;;;;5013681;28;20728;-62
2022/06/17 04:23:11;;;;;;;5.00;3.03;;;15.00;99.90;;;;;;5013893;28;20716;-62
2022/06/17 04:25:42;;;;;;;5.07;2.93;;;15.10;99.90;;;;;;5012874;28;20226;-63
2022/06/17 04:28:12;;;;;;;2.77;2.40;;;15.10;99.90;;;;;;5012389;28;20840;-62
2022/06/17 04:30:42;;;;;;;6.00;2.70;;;15.20;99.90;;;;;;5012282;28;20211;-62
2022/06/17 04:33:21;;;;;;;4.23;3.13;;;15.20;99.90;;;;;;5013900;28;20213;-62
2022/06/17 04:35:51;;;;;;;4.33;2.67;;;15.30;99.90;;;;;;5013465;28;20230;-62
2022/06/17 04:38:18;;;;;;;4.97;2.50;;;15.30;99.90;;;;;;5013215;28;20264;-62
2022/06/17 04:40:49;;;;;;;5.60;3.10;;;15.30;99.90;;;;;;5013379;28;20211;-62
2022/06/17 04:43:26;;;;;;;4.63;2.80;;;15.40;99.90;;;;;;5013334;28;20187;-63
2022/06/17 04:45:55;;;;;;;6.63;3.40;;;15.40;99.90;;;;;;5013337;28;20238;-61
2022/06/17 04:48:22;;;;;;;3.40;2.90;;;15.40;99.90;;;;;;5013189;28;20261;-62
2022/06/17 04:50:50;;;;;;;5.03;2.90;;;15.40;99.90;;;;;;5013522;28;20207;-62
2022/06/17 04:53:17;;;;;;;4.73;2.83;;;15.40;99.90;;;;;;5013304;28;20848;-62
2022/06/17 04:55:46;;;;;;;5.30;2.93;;;15.50;99.90;;;;;;5012786;28;20643;-62
2022/06/17 04:58:15;;;;;;;5.37;2.90;;;15.40;99.90;;;;;;5013109;28;20268;-62
2022/06/17 05:00:46;;;;;;;3.67;2.47;;;15.50;99.90;;;;;;5012721;28;20253;-61
2022/06/17 05:03:13;;;;;;;4.30;2.70;;;15.50;99.90;;;;;;5013301;28;20253;-60
2022/06/17 05:05:42;;;;;;;3.73;2.83;;;15.50;99.90;;;;;;5012767;28;20227;-63
2022/06/17 05:08:16;;;;;;;3.10;2.53;;;15.50;99.90;;;;;;5012554;28;20257;-62
2022/06/17 05:10:46;;;;;;;4.40;2.77;;;15.60;99.90;;;;;;5013147;28;20207;-62
2022/06/17 05:13:18;;;;;;;3.23;2.40;;;15.70;99.90;;;;;;5008583;28;20203;-63
2022/06/17 05:15:45;;;;;;;3.23;2.33;;;15.80;99.90;;;;;;5008480;28;20242;-62
2022/06/17 05:18:12;;;;;;;3.13;2.33;;;15.90;99.90;;;;;;5011691;28;20827;-62
2022/06/17 05:20:38;;;;;;;6.70;2.43;;;15.90;99.90;;;;;;5012368;28;20628;-63
2022/06/17 05:23:07;;;;;;;5.33;2.60;;;16.00;99.90;;;;;;5011969;28;20715;-62
2022/06/17 05:25:37;;;;;;;4.63;2.70;;;16.10;99.90;;;;;;5012339;28;20234;-62
2022/06/17 05:28:04;;;;;;;3.53;2.80;;;16.20;99.90;;;;;;5012221;28;20265;-65
2022/06/17 05:30:35;;;;;;;3.10;2.27;;;16.30;99.90;;;;;;5011520;28;20258;-63
2022/06/17 05:33:01;;;;;;;6.60;2.47;;;16.40;99.90;;;;;;5011927;28;20214;-64
2022/06/17 05:35:28;;;;;;;4.57;2.43;;;16.50;99.90;;;;;;5011648;28;20230;-63
2022/06/17 05:37:55;;;;;;;5.23;2.40;;;16.60;99.90;;;;;;5011426;28;20265;-64
2022/06/17 05:40:22;;;;;;;4.80;2.00;;;16.70;99.90;;;;;;5012116;28;20640;-64
2022/06/17 05:42:52;;;;;;;2.30;1.90;;;16.80;99.90;;;;;;5011634;28;20709;-66
2022/06/17 05:45:24;;;;;;;5.00;2.27;;;17.10;99.90;;;;;;5011575;28;20238;-66
2022/06/17 05:47:52;;;;;;;4.33;2.23;;;17.40;99.90;;;;;;5011179;28;20744;-66
2022/06/17 05:50:21;;;;;;;8.43;2.53;;;17.70;99.90;;;;;;5011249;28;20211;-64
2022/06/17 05:52:50;;;;;;;6.77;2.60;;;17.90;99.90;;;;;;5011667;28;20203;-67
2022/06/17 05:55:17;;;;;;;2.63;2.40;;;18.00;99.90;;;;;;5011631;28;20833;-65
2022/06/17 05:57:43;;;;;;;3.60;2.20;;;18.10;99.90;;;;;;5011183;28;20218;-65
2022/06/17 06:00:13;;;;;;;5.40;2.23;;;18.10;99.90;;;;;;5011326;28;20203;-65
2022/06/17 06:02:40;;;;;;;3.27;2.17;;;18.20;99.90;;;;;;5011945;28;20285;-64
2022/06/17 06:05:08;;;;;;;3.97;2.20;;;18.30;99.90;;;;;;5011513;28;20629;-65
2022/06/17 06:07:35;;;;;;;4.23;2.43;;;18.40;99.90;;;;;;5011099;28;20651;-64
2022/06/17 06:10:02;;;;;;;2.83;2.20;;;18.40;99.90;;;;;;5011848;28;20269;-63
2022/06/17 06:12:53;;;;;;;2.30;2.10;;;18.50;99.90;;;;;;5011211;28;20689;-63
2022/06/17 06:15:17;;;;;;;2.80;2.40;;;18.60;99.90;;;;;;5011136;28;20235;-63
2022/06/17 06:17:45;;;;;;;4.00;2.60;;;18.70;99.90;;;;;;5010799;28;20264;-64
2022/06/17 06:20:12;;;;;;;3.17;2.40;;;18.70;99.90;;;;;;5011765;28;20269;-63
2022/06/17 06:22:39;;;;;;;4.87;2.30;;;18.60;99.90;;;;;;5011547;28;20238;-65
2022/06/17 06:25:06;;;;;;;4.40;2.40;;;18.80;99.90;;;;;;5010836;28;20265;-64
2022/06/17 06:27:34;;;;;;;5.17;2.37;;;19.00;99.90;;;;;;5011154;28;20219;-63
2022/06/17 06:30:00;;;;;;;4.77;2.33;;;19.10;99.90;;;;;;5011664;28;20229;-63
2022/06/17 06:32:28;;;;;;;3.83;2.47;;;19.30;99.90;;;;;;5012281;28;20203;-65
2022/06/17 06:34:55;;;;;;;4.37;2.20;;;19.50;99.90;;;;;;5012262;28;20289;-66
2022/06/17 06:37:22;;;;;;;3.70;2.40;;;19.50;99.90;;;;;;5010943;28;20261;-66
2022/06/17 06:39:48;;;;;;;2.97;2.20;;;19.60;99.90;;;;;;5011389;28;20207;-65
2022/06/17 06:42:15;;;;;;;3.87;2.10;;;19.80;99.90;;;;;;5011031;28;20273;-65
2022/06/17 06:44:43;;;;;;;6.87;2.50;;;19.90;99.90;;;;;;5011734;28;20837;-64
2022/06/17 06:47:11;;;;;;;5.13;2.33;;;20.00;99.90;;;;;;5010754;28;20214;-65
2022/06/17 06:49:39;;;;;;;3.63;2.70;;;19.90;99.90;;;;;;5011167;28;20293;-62
2022/06/17 06:52:07;;;;;;;3.27;2.30;;;19.90;99.90;;;;;;5011370;28;20203;-61
2022/06/17 06:54:33;;;;;;;3.50;2.40;;;20.00;99.90;;;;;;5010639;28;20211;-60
2022/06/17 06:57:00;;;;;;;4.43;2.20;;;20.10;99.90;;;;;;5010669;28;20210;-61
2022/06/17 06:59:27;;;;;;;3.77;2.17;;;20.20;99.90;;;;;;5010935;28;20210;-66
2022/06/17 07:01:53;;;;;;;3.87;2.33;;;20.30;99.90;;;;;;5011326;28;20223;-64
2022/06/17 07:04:21;;;;;;;4.33;2.27;;;20.20;99.90;;;;;;5014350;28;20265;-64
2022/06/17 07:06:48;;;;;;;3.20;2.23;;;20.10;99.90;;;;;;5015411;28;20258;-64
2022/06/17 07:09:16;;;;;;;4.13;2.10;;;20.20;99.90;;;;;;5015887;28;20253;-64
2022/06/17 07:11:43;;;;;;;3.23;1.90;;;20.40;99.90;;;;;;5014937;28;20652;-64
2022/06/17 07:14:09;;;;;;;3.93;1.93;;;20.50;99.90;;;;;;5015039;28;20207;-65
2022/06/17 07:16:36;;;;;;;5.70;2.20;;;20.80;99.90;;;;;;5014077;28;20227;-65
2022/06/17 07:19:07;;;;;;;7.27;2.37;;;20.90;99.90;;;;;;5014240;28;20211;-68
2022/06/17 07:21:33;;;;;;;2.77;1.90;;;20.90;99.90;;;;;;5014670;28;20214;-66
2022/06/17 07:24:01;;;;;;;3.40;1.87;;;21.10;99.90;;;;;;5014134;28;20242;-65
2022/06/17 07:26:29;;;;;;;2.60;1.87;;;21.30;99.90;;;;;;5014053;28;20231;-67
2022/06/17 07:28:56;;;;;;;4.43;2.03;;;21.50;99.90;;;;;;5014509;28;20234;-68
2022/06/17 07:31:23;;;;;;;2.97;1.80;;;21.40;99.90;;;;;;5014233;28;20214;-64
2022/06/17 07:33:50;;;;;;;3.43;1.77;;;21.40;99.70;;;;;;5014338;28;20696;-66
2022/06/17 07:41:49;;;;;;;4.33;2.07;;;21.60;98.10;;;;;;5013521;28;20210;-65
2022/06/17 07:44:17;;;;;;;2.57;1.60;;;21.60;98.30;;;;;;5014108;28;20685;-65
2022/06/17 07:46:44;;;;;;;2.80;1.80;;;21.70;94.40;;;;;;5013106;28;20289;-63
2022/06/17 07:49:11;;;;;;;8.23;2.10;;;21.80;98.20;;;;;;5013566;28;20214;-62
2022/06/17 07:51:37;;;;;;;6.57;1.90;;;22.10;99.90;;;;;;5014177;28;20347;-62
2022/06/17 07:54:04;;;;;;;3.80;2.00;;;22.20;99.90;;;;;;5013750;28;20779;-63
2022/06/17 07:56:31;;;;;;;2.77;2.53;;;22.30;99.90;;;;;;5013301;28;20305;-62
2022/06/17 07:58:59;;;;;;;3.83;2.03;;;22.50;97.10;;;;;;5013695;28;20211;-62
2022/06/17 08:01:26;;;;;;;3.60;2.00;;;22.50;99.90;;;;;;5013853;28;20211;-62
2022/06/17 08:03:53;;;;;;;6.60;2.03;;;22.60;99.00;;;;;;5013962;28;20293;-64
2022/06/17 08:06:20;;;;;;;4.03;1.90;;;22.60;97.90;;;;;;5012848;28;20277;-65
2022/06/17 08:08:48;;;;;;;2.87;1.97;;;22.60;95.80;;;;;;5014064;28;20215;-64
2022/06/17 08:11:15;;;;;;;3.23;1.87;;;22.50;96.70;;;;;;5013441;28;20218;-63
2022/06/17 08:13:41;;;;;;;4.33;1.80;;;22.50;98.50;;;;;;5012875;28;20810;-63
2022/06/17 08:16:13;;;;;;;5.00;1.83;;;22.70;98.00;;;;;;5013049;28;20238;-64
2022/06/17 08:18:40;;;;;;;2.93;1.80;;;22.80;93.30;;;;;;5013348;28;20202;-65
2022/06/17 08:21:07;;;;;;;4.97;2.13;;;23.00;99.10;;;;;;5014225;28;20674;-65
2022/06/17 08:23:34;;;;;;;3.33;2.03;;;23.10;95.60;;;;;;5013716;28;20257;-66
2022/06/17 08:26:01;;;;;;;3.27;1.93;;;23.00;91.30;;;;;;5012527;28;20226;-66
2022/06/17 08:28:29;;;;;;;2.27;2.07;;;23.10;92.00;;;;;;5013520;28;20257;-66
2022/06/17 08:30:57;;;;;;;4.60;2.30;;;23.20;93.50;;;;;;5013146;28;20219;-66
2022/06/17 08:33:29;;;;;;;3.00;2.20;;;23.40;94.10;;;;;;5013170;28;20746;-64
2022/06/17 08:36:00;;;;;;;2.43;1.80;;;23.40;85.30;;;;;;5010065;28;20235;-65
2022/06/17 08:38:29;;;;;;;3.00;1.90;;;23.60;91.70;;;;;;5012666;28;20250;-65
2022/06/17 08:40:58;;;;;;;3.27;2.13;;;23.60;92.50;;;;;;5012722;28;20685;-64
2022/06/17 08:43:51;;;;;;;4.23;2.07;;;23.70;99.20;;;;;;5012567;28;20238;-65
2022/06/17 08:46:28;;;;;;;6.63;2.60;;;23.70;89.20;;;;;;5007353;28;20231;-66
2022/06/17 08:49:17;;;;;;;3.40;2.20;;;23.60;89.10;;;;;;5012539;28;20593;-66
2022/06/17 08:52:03;;;;;;;3.03;2.50;;;23.60;85.50;;;;;;5013145;28;20257;-67
2022/06/17 08:54:41;;;;;;;3.47;2.20;;;23.60;90.70;;;;;;5012804;28;20615;-65
2022/06/17 08:57:18;;;;;;;5.43;2.30;;;23.60;91.20;;;;;;5012186;28;20210;-66
2022/06/17 09:00:00;;;;;;;4.53;2.30;;;23.70;93.40;;;;;;5013027;28;20209;-69
2022/06/17 09:02:41;;;;;;;3.17;1.93;;;23.70;90.50;;;;;;5012434;28;20269;-67
2022/06/17 09:05:23;;;;;;;4.80;2.20;;;23.90;92.30;;;;;;5012663;28;20227;-63
2022/06/17 09:08:00;;;;;;;5.30;2.13;;;24.10;90.90;;;;;;5011891;28;20249;-62
2022/06/17 09:10:38;;;;;;;3.63;2.07;;;23.90;83.70;;;;;;5012576;28;20261;-63
2022/06/17 09:13:23;;;;;;;4.13;2.30;;;23.90;86.30;;;;;;5012013;28;20257;-61
2022/06/17 09:15:55;;;;;;;5.27;1.80;;;24.00;89.00;;;;;;5012007;28;20293;-63
2022/06/17 09:18:28;;;;;;;6.73;2.27;;;24.10;95.80;;;;;;5011963;28;20210;-60
2022/06/17 09:21:02;;;;;;;4.33;2.00;;;24.10;87.00;;;;;;5012776;28;20210;-68
2022/06/17 09:23:34;;;;;;;2.87;1.90;;;24.20;88.10;;;;;;5012127;28;20231;-72
2022/06/17 09:26:05;;;;;;;5.47;2.30;;;24.20;90.50;;;;;;5011150;28;20237;-63
2022/06/17 09:28:38;;;;;;;3.03;1.97;;;24.00;89.10;;;;;;5012190;28;20298;-63
2022/06/17 09:31:10;;;;;;;4.37;2.10;;;23.80;83.60;;;;;;5011883;28;20681;-63
2022/06/17 09:33:41;;;;;;;4.23;2.23;;;24.10;90.80;;;;;;5012295;28;20207;-61
2022/06/17 09:36:15;;;;;;;5.43;2.10;;;23.90;87.90;;;;;;5011287;28;20227;-61
2022/06/17 09:38:52;;;;;;;3.40;2.10;;;23.90;90.20;;;;;;5011982;28;20560;-61
2022/06/17 09:41:24;;;;;;;3.73;1.53;;;23.90;85.10;;;;;;5012116;28;20214;-61
2022/06/17 09:43:55;;;;;;;4.70;1.63;;;24.00;85.60;;;;;;5011677;28;20705;-65
2022/06/17 09:46:27;;;;;;;2.53;1.70;;;24.20;93.80;;;;;;5011736;28;20223;-66
2022/06/17 09:49:00;;;;;;;3.03;2.10;;;24.60;99.10;;;;;;5011889;28;20207;-65
2022/06/17 09:51:34;;;;;;;3.47;2.17;;;24.70;93.10;;;;;;5011910;28;20260;-63
2022/06/17 09:54:05;;;;;;;2.60;1.97;;;24.80;95.00;;;;;;5012204;28;20188;-60
2022/06/17 09:56:38;;;;;;;2.37;1.60;;;24.80;91.20;;;;;;5011425;28;20234;-62
2022/06/17 09:59:12;;;;;;;4.57;1.73;;;25.00;95.50;;;;;;5011972;28;20261;-62
2022/06/17 10:01:40;;;;;;;3.23;1.90;;;25.00;90.10;;;;;;5011521;28;20210;-66
2022/06/17 10:04:10;;;;;;;3.77;1.60;;;25.00;91.30;;;;;;5011485;28;20257;-65
2022/06/17 10:06:46;;;;;;;2.20;1.60;;;25.10;88.20;;;;;;5010922;28;20676;-65
2022/06/17 10:09:30;;;;;;;3.17;2.00;;;25.10;93.00;;;;;;5011694;28;20202;-67
2022/06/17 10:12:03;;;;;;;2.20;1.70;;;25.00;85.10;;;;;;5011442;28;20217;-61
2022/06/17 10:14:46;;;;;;;2.27;1.67;;;25.10;88.20;;;;;;5012207;28;20215;-65
2022/06/17 10:20:34;;;;;;;2.20;1.50;;;25.40;91.80;;;;;;4989572;28;20253;-65
2022/06/17 10:23:11;;;;;;;2.33;1.80;;;25.50;90.80;;;;;;4989709;28;20227;-65
2022/06/17 10:26:03;;;;;;;7.10;1.63;;;25.60;93.30;;;;;;5002439;28;20226;-62
2022/06/17 10:28:46;;;;;;;2.57;1.97;;;25.70;91.00;;;;;;5011718;28;20207;-62
2022/06/17 10:31:22;;;;;;;3.10;1.90;;;25.60;90.00;;;;;;5011140;28;20685;-62
2022/06/17 10:33:49;;;;;;;4.03;1.90;;;25.70;90.50;;;;;;5011703;28;20727;-63
2022/06/17 10:36:17;;;;;;;4.00;1.70;;;25.70;91.70;;;;;;5010531;28;20227;-63
2022/06/17 10:38:48;;;;;;;2.90;1.90;;;25.90;92.00;;;;;;5015461;28;20214;-63
2022/06/17 10:41:17;;;;;;;3.43;2.00;;;25.80;89.70;;;;;;5015206;28;20206;-65
2022/06/17 10:43:47;;;;;;;4.13;2.00;;;26.00;92.00;;;;;;5015070;28;20288;-66
2022/06/17 10:46:16;;;;;;;3.27;1.40;;;26.00;97.60;;;;;;5014896;28;20230;-66
2022/06/17 10:48:47;;;;;;;7.53;1.93;;;26.20;94.70;;;;;;5015124;28;20207;-65
2022/06/17 10:51:15;;;;;;;2.90;1.97;;;26.20;97.50;;;;;;5015161;28;20676;-66
2022/06/17 10:53:48;;;;;;;1.70;1.60;;;26.40;95.90;;;;;;5015306;28;20211;-63
2022/06/17 10:56:20;;;;;;;2.60;1.70;;;26.60;95.10;;;;;;5014686;28;20292;-65
2022/06/17 10:59:01;;;;;;;3.17;1.37;;;26.60;99.80;;;;;;5015638;28;20207;-65
2022/06/17 11:01:53;;;;;;;1.87;1.50;;;26.40;93.90;;;;;;5014619;28;20582;-69
2022/06/17 11:04:25;;;;;;;2.03;1.43;;;26.60;93.90;;;;;;5015235;28;20227;-64
2022/06/17 11:06:53;;;;;;;3.63;1.73;;;26.70;95.30;;;;;;5013971;28;20313;-62
2022/06/17 11:09:25;;;;;;;4.57;1.63;;;26.80;95.60;;;;;;5015179;28;20269;-62
2022/06/17 11:12:06;;;;;;;2.60;1.70;;;26.90;95.40;;;;;;5014949;28;20211;-62
2022/06/17 11:14:39;;;;;;;3.13;1.90;;;26.80;95.50;;;;;;5014418;28;20265;-62
2022/06/17 11:17:16;;;;;;;1.70;1.20;;;26.80;95.50;;;;;;5013854;28;20269;-59
2022/06/17 11:19:45;;;;;;;1.93;1.20;;;26.70;88.50;;;;;;5014698;28;20210;-62
2022/06/17 11:22:27;;;;;;;2.83;1.50;;;27.10;97.30;;;;;;5014806;28;20203;-62
2022/06/17 11:24:59;;;;;;;1.43;1.30;;;27.00;93.60;;;;;;5014388;28;20647;-62
2022/06/17 11:27:31;;;;;;;2.57;1.40;;;27.20;94.90;;;;;;5014000;28;20681;-62
2022/06/17 11:30:20;;;;;;;1.60;1.20;;;27.30;93.80;;;;;;5014663;28;20211;-62
2022/06/17 11:32:48;;;;;;;1.60;1.50;;;27.40;93.10;;;;;;5014351;28;20229;-62
2022/06/17 11:35:21;;;;;;;2.07;1.60;;;27.40;93.70;;;;;;5014293;28;20223;-62
2022/06/17 11:37:50;;;;;;;1.33;1.20;;;27.50;96.00;;;;;;5013415;28;20211;-62
2022/06/17 11:40:20;;;;;;;1.47;1.37;;;27.70;96.60;;;;;;5014548;28;20218;-59
2022/06/17 11:42:51;;;;;;;1.67;1.13;;;27.80;94.30;;;;;;5013959;28;20259;-60
2022/06/17 11:45:22;;;;;;;2.47;1.20;;;28.10;99.90;;;;;;5014005;28;20235;-59
2022/06/17 11:47:54;;;;;;;2.70;1.20;;;27.80;96.80;;;;;;5013864;28;20620;-61
2022/06/17 11:50:24;;;;;;;1.80;1.20;;;28.10;98.60;;;;;;5013053;28;20205;-61
2022/06/17 11:52:53;;;;;;;2.07;1.33;;;27.70;93.20;;;;;;5014212;28;20294;-60
2022/06/17 11:55:28;;;;;;;3.30;1.30;;;27.70;92.70;;;;;;5013367;28;20301;-62
2022/06/17 11:57:55;;;;;;;3.90;1.20;;;28.00;93.70;;;;;;5013786;28;20206;-63
2022/06/17 12:00:25;;;;;;;2.33;1.40;;;28.20;97.80;;;;;;5013881;28;20276;-62
2022/06/17 12:03:00;;;;;;;3.00;1.40;;;28.10;95.90;;;;;;5013767;28;20218;-62
2022/06/17 12:05:29;;;;;;;2.47;1.33;;;28.10;95.70;;;;;;5013934;28;20661;-63
2022/06/17 12:08:01;;;;;;;5.03;1.20;;;27.80;93.70;;;;;;5013279;28;20215;-68
2022/06/17 12:10:38;;;;;;;2.77;1.30;;;27.90;91.00;;;;;;5013964;28;20932;-68
2022/06/17 12:13:13;;;;;;;2.57;1.20;;;27.90;93.70;;;;;;5013022;28;20261;-63
2022/06/17 12:15:44;;;;;;;2.03;1.10;;;27.90;91.70;;;;;;5013468;28;20238;-63
2022/06/17 12:18:18;;;;;;;3.53;1.20;;;27.90;92.60;;;;;;5013231;28;20207;-63
2022/06/17 12:21:00;;;;;;;1.60;1.27;;;28.10;94.10;;;;;;5013591;28;20215;-64
2022/06/17 12:23:33;;;;;;;3.13;1.20;;;28.20;96.50;;;;;;4993873;28;20212;-64
2022/06/17 12:26:05;;;;;;;1.00;0.90;;;28.20;90.60;;;;;;4993126;28;20231;-62
2022/06/17 12:28:39;;;;;;;1.87;1.10;;;28.50;95.80;;;;;;4994028;28;20224;-64
2022/06/17 12:31:14;;;;;;;3.50;1.10;;;28.60;94.90;;;;;;4993576;28;20207;-64
2022/06/17 12:33:44;;;;;;;1.77;1.07;;;28.30;93.10;;;;;;5010016;28;20745;-62
2022/06/17 12:36:17;;;;;;;2.20;1.20;;;28.40;92.40;;;;;;5012380;28;20227;-62
2022/06/17 12:38:50;;;;;;;2.90;1.20;;;28.30;91.60;;;;;;5012978;28;20211;-62
2022/06/17 12:41:23;;;;;;;2.30;1.40;;;28.20;90.80;;;;;;5012837;28;20210;-62
2022/06/17 12:44:10;;;;;;;3.47;2.97;;;28.30;93.20;;;;;;5012712;28;20227;-66
2022/06/17 12:46:44;;;;;;;1.37;1.27;;;28.50;93.20;;;;;;5012230;28;20277;-67
2022/06/17 12:55:09;;;;;;;1.50;1.00;;;28.40;92.20;;;;;;5012070;28;20234;-62
2022/06/17 12:57:43;;;;;;;1.63;1.20;;;28.40;87.60;;;;;;5012659;28;20210;-67
2022/06/17 13:00:17;;;;;;;2.07;1.13;;;28.40;92.80;;;;;;5013056;28;20214;-72
2022/06/17 13:03:10;;;;;;;2.30;1.20;;;28.40;90.10;;;;;;5013341;28;20218;-72
2022/06/17 13:05:41;;;;;;;1.37;1.10;;;28.40;90.40;;;;;;5013209;28;20231;-69
2022/06/17 13:08:18;;;;;;;1.53;0.90;;;28.40;90.40;;;;;;5013977;28;20233;-66
2022/06/17 13:10:50;;;;;;;1.27;0.90;;;28.40;80.80;;;;;;5013436;28;20217;-66
2022/06/17 13:13:44;;;;;;;2.83;1.17;;;28.70;85.40;;;;;;5013278;28;20290;-65
2022/06/17 13:16:19;;;;;;;9.53;6.67;;;28.90;90.90;;;;;;5012094;28;20239;-64
2022/06/17 13:18:49;;;;;;;2.67;2.17;;;29.00;92.30;;;;;;5012833;28;20206;-65
2022/06/17 13:21:24;;;;;;;1.70;0.90;;;29.10;84.20;;;;;;5012756;28;20211;-61
2022/06/17 13:23:58;;;;;;;3.53;0.83;;;29.00;77.50;;;;;;5012368;28;20226;-61